createdAt,value
2023-03-03T00:03:26.972Z,100857.34
2023-03-03T00:08:29.713Z,100858.88
2023-03-03T00:13:33.609Z,100853.38
2023-03-03T00:18:38.608Z,100862.22
2023-03-03T00:23:42.597Z,100863.16
2023-03-03T00:28:47.371Z,100852.66
2023-03-03T00:33:54.621Z,100855.13
2023-03-03T00:39:01.607Z,100853.38
2023-03-03T00:44:25.673Z,100846.31
2023-03-03T00:49:29.779Z,100840.13
2023-03-03T00:54:32.532Z,100851.28
2023-03-03T00:59:35.478Z,100856.81
2023-03-03T01:04:40.404Z,100859.91
2023-03-03T01:09:43.243Z,100863.78
2023-03-03T01:14:46.300Z,100857.94
2023-03-03T01:19:50.445Z,100863.16
2023-03-03T01:24:53.159Z,100865.09
2023-03-03T01:29:56.454Z,100850.44
2023-03-03T01:35:00.768Z,100848.22
2023-03-03T01:40:04.448Z,100840.72
2023-03-03T01:45:19.825Z,100844.03
2023-03-03T01:50:31.596Z,100838.28
2023-03-03T01:55:36.763Z,100838.69
2023-03-03T02:00:42.603Z,100846.06
2023-03-03T02:05:46.667Z,100847.38
2023-03-03T02:10:49.469Z,100841.53
2023-03-03T02:15:52.272Z,100850.47
2023-03-03T02:20:59.098Z,100852.53
2023-03-03T02:26:09.282Z,100849.72
2023-03-03T02:31:14.308Z,100846.31
2023-03-03T02:36:20.622Z,100848.91
2023-03-03T02:41:31.971Z,100855.91
2023-03-03T02:46:37.303Z,100846.75
2023-03-03T02:51:42.036Z,100856.09
2023-03-03T02:56:46.193Z,100856.75
2023-03-03T03:01:49.814Z,100855.06
2023-03-03T03:06:55.374Z,100854.63
2023-03-03T03:12:02.456Z,100849.19
2023-03-03T03:17:07.943Z,100829.22
2023-03-03T03:22:10.727Z,100816.22
2023-03-03T03:27:15.780Z,100823.59
2023-03-03T03:32:19.406Z,100835.03
2023-03-03T03:37:22.377Z,100835.84
2023-03-03T03:42:26.934Z,100862.59
2023-03-03T03:47:29.792Z,100863.41
2023-03-03T03:52:33.952Z,100867.41
2023-03-03T03:57:38.447Z,100866.44
2023-03-03T04:02:41.484Z,100860.31
2023-03-03T04:07:48.304Z,100866.72
2023-03-03T04:12:54.500Z,100876.31
2023-03-03T04:17:58.637Z,100876.19
2023-03-03T04:23:02.167Z,100870.94
2023-03-03T04:28:08.440Z,100874.34
2023-03-03T04:33:11.765Z,100881.97
2023-03-03T04:38:16.361Z,100880.44
2023-03-03T04:43:21.645Z,100870.25
2023-03-03T04:48:24.450Z,100877.56
2023-03-03T04:53:27.994Z,100889.63
2023-03-03T04:58:32.236Z,100880.44
2023-03-03T05:03:35.049Z,100871.25
2023-03-03T05:08:38.222Z,100872.09
2023-03-03T05:13:42.280Z,100885.09
2023-03-03T05:18:45.529Z,100892.22
2023-03-03T05:23:48.301Z,100902.72
2023-03-03T05:28:52.356Z,100895.69
2023-03-03T05:33:55.553Z,100898.75
2023-03-03T05:38:58.224Z,100896.16
2023-03-03T05:44:02.376Z,100897.00
2023-03-03T05:49:05.173Z,100892.34
2023-03-03T05:54:07.907Z,100890.88
2023-03-03T05:59:12.003Z,100884.28
2023-03-03T06:04:14.735Z,100893.56
2023-03-03T06:09:19.063Z,100890.56
2023-03-03T06:14:26.019Z,100903.19
2023-03-03T06:19:29.670Z,100920.75
2023-03-03T06:24:32.584Z,100919.63
2023-03-03T06:29:36.871Z,100930.00
2023-03-03T06:34:39.711Z,100931.56
2023-03-03T06:39:42.667Z,100926.47
2023-03-03T06:44:46.911Z,100912.63
2023-03-03T06:49:49.679Z,100913.50
2023-03-03T06:54:55.303Z,100915.81
2023-03-03T07:00:03.977Z,100924.75
2023-03-03T07:05:08.319Z,100936.25
2023-03-03T07:10:19.354Z,100960.06
2023-03-03T07:15:26.275Z,100967.03
2023-03-03T07:20:35.238Z,100967.03
2023-03-03T07:25:38.062Z,100963.97
2023-03-03T07:30:43.234Z,100969.63
2023-03-03T07:35:47.407Z,100984.13
2023-03-03T07:40:51.093Z,100987.28
2023-03-03T07:45:56.342Z,100988.50
2023-03-03T07:51:02.025Z,100983.94
2023-03-03T07:56:12.649Z,100990.63
2023-03-03T08:01:40.367Z,100995.81
2023-03-03T08:06:49.648Z,100998.38
2023-03-03T08:11:55.410Z,100996.09
2023-03-03T08:17:01.690Z,101003.16
2023-03-03T08:22:13.959Z,100997.31
2023-03-03T08:27:16.925Z,100997.00
2023-03-03T08:32:21.222Z,100985.91
2023-03-03T08:37:24.033Z,100982.31
2023-03-03T08:42:26.831Z,100999.22
2023-03-03T08:47:30.880Z,100993.25
2023-03-03T08:52:34.289Z,100996.59
2023-03-03T08:57:37.325Z,101004.66
2023-03-03T09:02:41.528Z,101018.19
2023-03-03T09:07:47.786Z,101022.28
2023-03-03T09:12:50.825Z,101017.56
2023-03-03T09:17:55.629Z,101029.03
2023-03-03T09:22:59.296Z,101025.63
2023-03-03T09:28:03.235Z,101022.84
2023-03-03T09:33:25.181Z,101028.38
2023-03-03T09:38:30.613Z,101024.44
2023-03-03T09:43:37.648Z,101024.91
2023-03-03T09:48:54.281Z,101035.44
2023-03-03T09:54:10.225Z,101039.53
2023-03-03T09:59:27.208Z,101019.97
2023-03-03T10:04:43.692Z,101026.16
2023-03-03T10:10:04.922Z,101022.47
2023-03-03T10:15:26.769Z,101029.97
2023-03-03T10:20:49.732Z,101026.66
2023-03-03T10:26:05.508Z,101036.13
2023-03-03T10:31:18.603Z,101043.72
2023-03-03T10:36:34.019Z,101029.88
2023-03-03T10:41:49.599Z,101028.41
2023-03-03T10:47:23.346Z,101026.72
2023-03-03T10:52:38.039Z,101041.22
2023-03-03T10:57:52.260Z,101041.41
2023-03-03T11:03:14.850Z,101030.38
2023-03-03T11:08:23.218Z,101020.44
2023-03-03T11:13:36.562Z,101028.34
2023-03-03T11:18:50.663Z,101019.31
2023-03-03T11:24:14.507Z,101014.84
2023-03-03T11:29:26.309Z,101019.78
2023-03-03T11:34:45.330Z,101017.63
2023-03-03T11:39:51.608Z,101010.91
2023-03-03T11:44:57.484Z,101021.22
2023-03-03T11:50:03.912Z,101023.75
2023-03-03T11:55:11.384Z,101022.72
2023-03-03T12:00:21.829Z,101019.31
2023-03-03T12:05:35.883Z,101013.25
2023-03-03T12:10:45.614Z,100994.31
2023-03-03T12:15:52.582Z,100995.78
2023-03-03T12:21:04.375Z,100989.75
2023-03-03T12:26:13.115Z,100985.47
2023-03-03T12:31:23.643Z,100970.44
2023-03-03T12:37:06.011Z,100979.16
2023-03-03T12:42:16.854Z,100979.16
2023-03-03T12:47:26.475Z,100969.69
2023-03-03T12:52:34.380Z,100969.69
2023-03-03T12:57:44.314Z,100970.91
2023-03-03T13:02:56.404Z,100961.25
2023-03-03T13:08:22.603Z,100961.03
2023-03-03T13:13:29.628Z,100956.41
2023-03-03T13:18:44.333Z,100951.50
2023-03-03T13:23:52.452Z,100949.19
2023-03-03T13:29:02.541Z,100938.50
2023-03-03T13:34:05.580Z,100941.56
2023-03-03T13:39:18.845Z,100948.88
2023-03-03T13:44:26.772Z,100947.41
2023-03-03T13:49:38.576Z,100940.03
2023-03-03T13:55:02.696Z,100947.66
2023-03-03T14:00:16.194Z,100939.53
2023-03-03T14:05:25.409Z,100921.03
2023-03-03T14:10:31.738Z,100927.53
2023-03-03T14:15:37.765Z,100912.66
2023-03-03T14:20:42.736Z,100903.16
2023-03-03T14:25:57.711Z,100887.63
2023-03-03T14:31:17.328Z,100895.00
2023-03-03T14:36:30.266Z,100894.06
2023-03-03T14:41:40.002Z,100894.56
2023-03-03T14:46:45.053Z,100885.66
2023-03-03T14:51:49.006Z,100880.69
2023-03-03T14:57:01.009Z,100883.56
2023-03-03T15:02:33.096Z,100882.81
2023-03-03T15:07:37.503Z,100882.75
2023-03-03T15:12:41.609Z,100876.63
2023-03-03T15:17:56.392Z,100884.75
2023-03-03T15:23:09.071Z,100886.13
2023-03-03T15:28:23.749Z,100879.63
2023-03-03T15:33:33.569Z,100865.16
2023-03-03T15:38:45.000Z,100869.59
2023-03-03T15:43:54.254Z,100877.09
2023-03-03T15:49:11.694Z,100867.81
2023-03-03T15:54:27.348Z,100856.16
2023-03-03T15:59:46.404Z,100860.31
2023-03-03T16:04:57.378Z,100878.63
2023-03-03T16:10:12.047Z,100868.00
2023-03-03T16:15:25.701Z,100870.91
2023-03-03T16:20:34.643Z,100863.91
2023-03-03T16:25:45.604Z,100868.06
2023-03-03T16:30:53.923Z,100877.34
2023-03-03T16:36:03.763Z,100874.94
2023-03-03T16:41:10.636Z,100886.63
2023-03-03T16:46:23.312Z,100880.50
2023-03-03T16:51:38.591Z,100887.06
2023-03-03T16:56:44.716Z,100877.28
2023-03-03T17:01:52.036Z,100878.16
2023-03-03T17:07:00.833Z,100870.84
2023-03-03T17:12:13.568Z,100884.66
2023-03-03T17:17:23.773Z,100890.16
2023-03-03T17:22:30.915Z,100886.28
2023-03-03T17:27:52.439Z,100895.31
2023-03-03T17:33:06.281Z,100887.47
2023-03-03T17:38:19.025Z,100887.09
2023-03-03T17:43:24.886Z,100897.78
2023-03-03T17:48:55.471Z,100899.00
2023-03-03T17:54:19.258Z,100899.50
2023-03-03T17:59:40.518Z,100884.09
2023-03-03T18:04:58.362Z,100891.50
2023-03-03T18:10:35.526Z,100896.63
2023-03-03T18:16:01.841Z,100903.84
2023-03-03T18:21:16.570Z,100903.22
2023-03-03T18:26:37.124Z,100900.06
2023-03-03T18:31:49.303Z,100904.31
2023-03-03T18:36:56.601Z,100899.03
2023-03-03T18:42:38.247Z,100888.63
2023-03-03T18:48:06.360Z,100887.63
2023-03-03T18:53:15.390Z,100906.16
2023-03-03T18:58:50.681Z,100898.75
2023-03-03T19:04:04.673Z,100894.38
2023-03-03T19:09:07.823Z,100897.84
2023-03-03T19:14:19.123Z,100902.75
2023-03-03T19:19:24.527Z,100902.56
2023-03-03T19:24:36.483Z,100903.75
2023-03-03T19:29:54.574Z,100905.97
2023-03-03T19:35:09.328Z,100908.09
2023-03-03T19:40:18.304Z,100901.31
2023-03-03T19:45:29.578Z,100907.25
2023-03-03T19:50:46.612Z,100897.50
2023-03-03T19:56:00.109Z,100905.13
2023-03-03T20:01:09.013Z,100900.03
2023-03-03T20:06:24.554Z,100896.38
2023-03-03T20:11:46.040Z,100889.41
2023-03-03T20:16:50.272Z,100882.47
2023-03-03T20:22:03.873Z,100877.34
2023-03-03T20:27:07.796Z,100869.47
2023-03-03T20:32:16.463Z,100879.84
2023-03-03T20:37:25.467Z,100876.41
2023-03-03T20:42:38.533Z,100889.31
2023-03-03T20:47:50.577Z,100886.16
2023-03-03T20:53:03.636Z,100879.31
2023-03-03T20:58:11.381Z,100886.06
2023-03-03T21:03:19.725Z,100888.59
2023-03-03T21:08:41.461Z,100882.38
2023-03-03T21:13:45.131Z,100885.91
2023-03-03T21:18:57.823Z,100882.56
2023-03-03T21:24:01.999Z,100881.63
2023-03-03T21:29:04.674Z,100886.19
2023-03-03T21:34:19.370Z,100878.44
2023-03-03T21:39:29.400Z,100874.72
2023-03-03T21:44:37.994Z,100870.91
2023-03-03T21:49:42.425Z,100864.34
2023-03-03T21:54:47.698Z,100860.47
2023-03-03T21:59:50.418Z,100856.38
2023-03-03T22:04:53.177Z,100848.59
2023-03-03T22:09:57.244Z,100841.81
2023-03-03T22:15:00.159Z,100841.06
2023-03-03T22:20:03.014Z,100847.47
2023-03-03T22:25:08.467Z,100843.47
2023-03-03T22:30:12.570Z,100848.41
2023-03-03T22:35:15.491Z,100837.00
2023-03-03T22:40:19.921Z,100833.47
2023-03-03T22:45:22.700Z,100830.59
2023-03-03T22:50:25.466Z,100841.91
2023-03-03T22:55:29.739Z,100825.28
2023-03-03T23:00:32.462Z,100828.00
2023-03-03T23:05:35.761Z,100820.50
2023-03-03T23:10:40.374Z,100813.97
2023-03-03T23:15:43.122Z,100808.78
2023-03-03T23:20:46.091Z,100794.88
2023-03-03T23:25:50.260Z,100781.09
2023-03-03T23:30:52.997Z,100783.75
2023-03-03T23:35:55.769Z,100790.72
2023-03-03T23:40:59.913Z,100786.81
2023-03-03T23:46:02.642Z,100784.41
2023-03-03T23:51:05.708Z,100760.41
2023-03-03T23:56:09.981Z,100765.13
